Terminal Aerodrome Forecast
Issued by NWS Wilmington, NC

Home | Current Version | Previous Version | Text Only | Print | Product List | Glossary On
Versions: 1 2 3 4 5 6 7 8 9 10 11 12 13 14 15 16 17 18
000
FTUS42 KILM 161700
TAFMYR
TAF
KMYR 161721Z 1618/1718 03016G26KT P6SM SKC
     FM162300 04010KT P6SM SCT040
     FM170700 05011KT P6SM SCT010 BKN035
     FM171300 05012G18KT P6SM SCT020 BKN040=

USA.gov is the U.S. government's official web portal to all federal, state and local government web resources and services.